Jeff, KY

7:01 AM EST on November 12, 2019 (GMT -0500)
Clayhole | | Change Station
Active Advisory: Winter Weather Advisory

Elev 780 ft 37.47 °N, 83.28 °W | Updated 10 seconds ago

Overcast
Overcast
29.7 °F
Feels Like 30 °F
N
2
Wind Variable Wind from East
Gusts 2.2 mph

Today
High -- | Low -- °F
--% Chance of Precip.
Yesterday
High -- | Low -- °F
Precip. -- in
Pressure 30.18 in
Visibility 10.0 miles
Clouds Overcast 1700 ft
Windchill 30 °F
Dew Point 26 °F
Humidity 88%
Rainfall 0.04 in
Snow Depth Not available.
7:08 AM 5:24 PM
Full, 100% visible
METAR KI35 121155Z AUTO 28004KT 10SM OVC017 M02/M05 A3018 RMK AO2 T10201048 10037 21020
Pressure 30.18 in
Visibility 10.0 miles
Clouds Overcast 1700 ft
Windchill 30 °F
Dew Point 26 °F
Humidity 88%
Rainfall 0.04 in
Snow Depth Not available.
7:08 AM 5:24 PM
Full, 100% visible
METAR KI35 121155Z AUTO 28004KT 10SM OVC017 M02/M05 A3018 RMK AO2 T10201048 10037 21020

Get Your Daily Forecast Email!

Thanks for signing up!

Be on the lookout for a verification email in your inbox.

You'll start receiving severe weather alerts in your inbox..

×

10-Day Weather Forecast

Almanac

Astronomy

Nov. 12, 2019 Rise Set
Actual Time
Civil Twilight
Nautical Twilight
Astronomical Twilight
Moon
Length of Visible Light
Length of Day
Tomorrow will be .
, % of the Moon is Illuminated

Today's Extremes

State Highs State Lows

Community

WunderPhotos

Category 6

Welcome to Category 6. This is the collective home for Weather Underground's featured writeups by Dr. Jeff Masters (right), Bob Henson (left), Chris Burt, and other regular contributors.

Nearby

Air Quality

  Air Quality AQ Index Pollutant
Not available.

Snow Depth

Station Depth Elevation

Earthquake Activity

City Distance Mag. Time & Date
Minimum magnitude displayed is 2.5.

Coastal Water Temperatures

Place Temperature

Stations

Nearby Weather Stations

Station Location Temp. Windchill Dew Point Humidity Wind Precip. Elev Updated Type
                   

Watches & Warnings

Winter Weather Advisory
Issued: 3:30 AM EST Nov. 12, 2019 – National Weather Service

... Winter Weather Advisory remains in effect until 11 am EST this
morning...

* what... snow. Additional snow accumulations of up to one inch.

* Where... portions of east Central, Northeast, south central and
southeast Kentucky.

* When... until 11 am EST this morning.

* Impacts... plan on slippery Road conditions. The hazardous
conditions could impact the morning commute.

* Additional details... temperatures today will not rise above
freezing in most locations, and will drop into to the middle
teens tonight.

Precautionary/preparedness actions...

Slow down and use caution while traveling.

The latest Road conditions for the state you are calling from can
be obtained by calling 5 1 1.



Greif